sensor_id;sensor_type;location;lat;lon;timestamp;P1;durP1;ratioP1;P2;durP2;ratioP2
54935;SDS011;40838;50.676;7.838;2022-08-27T00:01:05;18.88;;;11.88;;
54935;SDS011;40838;50.676;7.838;2022-08-27T00:03:32;20.60;;;11.77;;
54935;SDS011;40838;50.676;7.838;2022-08-27T00:05:59;21.10;;;11.35;;
54935;SDS011;40838;50.676;7.838;2022-08-27T00:08:25;19.35;;;11.80;;
54935;SDS011;40838;50.676;7.838;2022-08-27T00:10:52;19.55;;;10.90;;
54935;SDS011;40838;50.676;7.838;2022-08-27T00:13:20;16.35;;;10.30;;
54935;SDS011;40838;50.676;7.838;2022-08-27T00:15:46;19.98;;;11.25;;
54935;SDS011;40838;50.676;7.838;2022-08-27T00:18:13;15.52;;;11.07;;
54935;SDS011;40838;50.676;7.838;2022-08-27T00:20:40;18.38;;;11.52;;
54935;SDS011;40838;50.676;7.838;2022-08-27T00:23:07;17.58;;;11.35;;
54935;SDS011;40838;50.676;7.838;2022-08-27T00:25:34;17.92;;;10.68;;
54935;SDS011;40838;50.676;7.838;2022-08-27T00:28:01;19.15;;;10.07;;
54935;SDS011;40838;50.676;7.838;2022-08-27T00:30:29;16.90;;;11.07;;
54935;SDS011;40838;50.676;7.838;2022-08-27T00:32:58;18.42;;;10.50;;
54935;SDS011;40838;50.676;7.838;2022-08-27T00:35:25;28.48;;;12.43;;
54935;SDS011;40838;50.676;7.838;2022-08-27T00:37:52;19.73;;;11.38;;
54935;SDS011;40838;50.676;7.838;2022-08-27T00:40:19;19.38;;;11.40;;
54935;SDS011;40838;50.676;7.838;2022-08-27T00:42:47;19.88;;;12.13;;
54935;SDS011;40838;50.676;7.838;2022-08-27T00:45:15;22.48;;;11.93;;
54935;SDS011;40838;50.676;7.838;2022-08-27T00:47:44;20.08;;;12.65;;
54935;SDS011;40838;50.676;7.838;2022-08-27T00:50:13;19.67;;;10.98;;
54935;SDS011;40838;50.676;7.838;2022-08-27T00:52:43;21.23;;;11.25;;
54935;SDS011;40838;50.676;7.838;2022-08-27T00:55:12;17.13;;;11.77;;
54935;SDS011;40838;50.676;7.838;2022-08-27T00:57:41;18.25;;;11.50;;
54935;SDS011;40838;50.676;7.838;2022-08-27T01:00:09;20.00;;;12.00;;
54935;SDS011;40838;50.676;7.838;2022-08-27T01:02:36;15.77;;;10.68;;
54935;SDS011;40838;50.676;7.838;2022-08-27T01:05:05;18.80;;;11.73;;
54935;SDS011;40838;50.676;7.838;2022-08-27T01:07:34;20.85;;;12.38;;
54935;SDS011;40838;50.676;7.838;2022-08-27T01:10:03;17.35;;;10.43;;
54935;SDS011;40838;50.676;7.838;2022-08-27T01:12:31;19.65;;;11.63;;
54935;SDS011;40838;50.676;7.838;2022-08-27T01:14:58;19.55;;;11.40;;
54935;SDS011;40838;50.676;7.838;2022-08-27T01:17:25;21.83;;;10.80;;
54935;SDS011;40838;50.676;7.838;2022-08-27T01:19:53;23.25;;;11.20;;
54935;SDS011;40838;50.676;7.838;2022-08-27T01:22:27;19.00;;;11.07;;
54935;SDS011;40838;50.676;7.838;2022-08-27T01:24:57;20.58;;;10.85;;
54935;SDS011;40838;50.676;7.838;2022-08-27T01:27:24;20.23;;;10.30;;
54935;SDS011;40838;50.676;7.838;2022-08-27T01:29:51;23.73;;;11.13;;
54935;SDS011;40838;50.676;7.838;2022-08-27T01:32:19;16.40;;;10.23;;
54935;SDS011;40838;50.676;7.838;2022-08-27T01:34:46;20.67;;;10.90;;
54935;SDS011;40838;50.676;7.838;2022-08-27T01:37:17;19.45;;;10.48;;
54935;SDS011;40838;50.676;7.838;2022-08-27T01:39:44;19.45;;;10.63;;
54935;SDS011;40838;50.676;7.838;2022-08-27T01:42:13;20.75;;;10.57;;
54935;SDS011;40838;50.676;7.838;2022-08-27T01:44:41;18.55;;;11.45;;
54935;SDS011;40838;50.676;7.838;2022-08-27T01:47:07;13.73;;;9.52;;
54935;SDS011;40838;50.676;7.838;2022-08-27T01:49:34;15.10;;;10.30;;
54935;SDS011;40838;50.676;7.838;2022-08-27T01:52:01;19.33;;;12.27;;
54935;SDS011;40838;50.676;7.838;2022-08-27T01:54:28;17.13;;;10.88;;
54935;SDS011;40838;50.676;7.838;2022-08-27T01:56:55;23.58;;;11.43;;
54935;SDS011;40838;50.676;7.838;2022-08-27T01:59:23;25.13;;;10.80;;
54935;SDS011;40838;50.676;7.838;2022-08-27T02:01:49;17.17;;;10.88;;
54935;SDS011;40838;50.676;7.838;2022-08-27T02:04:16;19.27;;;11.73;;
54935;SDS011;40838;50.676;7.838;2022-08-27T02:06:43;15.57;;;10.02;;
54935;SDS011;40838;50.676;7.838;2022-08-27T02:09:11;18.20;;;11.07;;
54935;SDS011;40838;50.676;7.838;2022-08-27T02:11:37;17.15;;;9.70;;
54935;SDS011;40838;50.676;7.838;2022-08-27T02:14:04;18.23;;;10.35;;
54935;SDS011;40838;50.676;7.838;2022-08-27T02:16:32;16.48;;;9.30;;
54935;SDS011;40838;50.676;7.838;2022-08-27T02:18:58;16.70;;;10.07;;
54935;SDS011;40838;50.676;7.838;2022-08-27T02:21:25;16.50;;;9.32;;
54935;SDS011;40838;50.676;7.838;2022-08-27T02:23:54;20.38;;;10.00;;
54935;SDS011;40838;50.676;7.838;2022-08-27T02:26:20;16.67;;;9.55;;
54935;SDS011;40838;50.676;7.838;2022-08-27T02:28:47;14.98;;;9.00;;
54935;SDS011;40838;50.676;7.838;2022-08-27T02:31:14;17.50;;;10.23;;
54935;SDS011;40838;50.676;7.838;2022-08-27T02:33:43;13.90;;;9.20;;
54935;SDS011;40838;50.676;7.838;2022-08-27T02:36:11;12.10;;;8.55;;
54935;SDS011;40838;50.676;7.838;2022-08-27T02:38:41;14.10;;;8.70;;
54935;SDS011;40838;50.676;7.838;2022-08-27T02:41:07;11.88;;;7.90;;
54935;SDS011;40838;50.676;7.838;2022-08-27T02:43:34;16.48;;;8.40;;
54935;SDS011;40838;50.676;7.838;2022-08-27T02:46:01;19.70;;;11.20;;
54935;SDS011;40838;50.676;7.838;2022-08-27T02:48:29;17.92;;;10.38;;
54935;SDS011;40838;50.676;7.838;2022-08-27T02:50:57;19.13;;;10.38;;
54935;SDS011;40838;50.676;7.838;2022-08-27T02:53:24;19.00;;;9.80;;
54935;SDS011;40838;50.676;7.838;2022-08-27T02:55:51;14.95;;;9.93;;
54935;SDS011;40838;50.676;7.838;2022-08-27T02:58:17;19.65;;;10.35;;
54935;SDS011;40838;50.676;7.838;2022-08-27T03:00:44;15.10;;;10.68;;
54935;SDS011;40838;50.676;7.838;2022-08-27T03:03:11;16.48;;;10.77;;
54935;SDS011;40838;50.676;7.838;2022-08-27T03:05:42;18.58;;;10.27;;
54935;SDS011;40838;50.676;7.838;2022-08-27T03:08:10;18.95;;;11.18;;
54935;SDS011;40838;50.676;7.838;2022-08-27T03:10:36;21.92;;;11.93;;
54935;SDS011;40838;50.676;7.838;2022-08-27T03:13:04;20.42;;;11.15;;
54935;SDS011;40838;50.676;7.838;2022-08-27T03:15:30;17.70;;;13.60;;
54935;SDS011;40838;50.676;7.838;2022-08-27T03:17:57;23.30;;;13.23;;
54935;SDS011;40838;50.676;7.838;2022-08-27T03:20:38;19.52;;;12.40;;
54935;SDS011;40838;50.676;7.838;2022-08-27T03:23:05;22.38;;;13.65;;
54935;SDS011;40838;50.676;7.838;2022-08-27T03:25:33;24.20;;;13.85;;
54935;SDS011;40838;50.676;7.838;2022-08-27T03:28:00;21.65;;;14.38;;
54935;SDS011;40838;50.676;7.838;2022-08-27T03:30:27;22.23;;;14.63;;
54935;SDS011;40838;50.676;7.838;2022-08-27T03:32:59;23.10;;;15.07;;
54935;SDS011;40838;50.676;7.838;2022-08-27T03:35:26;22.17;;;14.23;;
54935;SDS011;40838;50.676;7.838;2022-08-27T03:37:52;25.90;;;14.98;;
54935;SDS011;40838;50.676;7.838;2022-08-27T03:40:19;26.67;;;15.93;;
54935;SDS011;40838;50.676;7.838;2022-08-27T03:42:47;23.73;;;14.48;;
54935;SDS011;40838;50.676;7.838;2022-08-27T03:45:14;24.13;;;15.00;;
54935;SDS011;40838;50.676;7.838;2022-08-27T03:47:41;22.70;;;14.65;;
54935;SDS011;40838;50.676;7.838;2022-08-27T03:50:08;27.27;;;15.10;;
54935;SDS011;40838;50.676;7.838;2022-08-27T03:52:38;25.27;;;15.52;;
54935;SDS011;40838;50.676;7.838;2022-08-27T03:55:06;25.83;;;15.43;;
54935;SDS011;40838;50.676;7.838;2022-08-27T03:57:34;23.20;;;15.95;;
54935;SDS011;40838;50.676;7.838;2022-08-27T04:00:02;27.08;;;17.20;;
54935;SDS011;40838;50.676;7.838;2022-08-27T04:02:37;22.45;;;15.82;;
54935;SDS011;40838;50.676;7.838;2022-08-27T04:05:07;25.05;;;17.17;;
54935;SDS011;40838;50.676;7.838;2022-08-27T04:07:35;27.20;;;18.13;;
54935;SDS011;40838;50.676;7.838;2022-08-27T04:10:03;24.73;;;16.08;;
54935;SDS011;40838;50.676;7.838;2022-08-27T04:12:30;29.42;;;17.40;;
54935;SDS011;40838;50.676;7.838;2022-08-27T04:14:56;27.38;;;17.90;;
54935;SDS011;40838;50.676;7.838;2022-08-27T04:17:24;25.42;;;16.40;;
54935;SDS011;40838;50.676;7.838;2022-08-27T04:19:53;28.58;;;17.08;;
54935;SDS011;40838;50.676;7.838;2022-08-27T04:22:19;28.65;;;18.42;;
54935;SDS011;40838;50.676;7.838;2022-08-27T04:24:48;25.88;;;17.42;;
54935;SDS011;40838;50.676;7.838;2022-08-27T04:27:14;27.20;;;17.05;;
54935;SDS011;40838;50.676;7.838;2022-08-27T04:29:41;24.55;;;16.15;;
54935;SDS011;40838;50.676;7.838;2022-08-27T04:32:08;25.02;;;17.20;;
54935;SDS011;40838;50.676;7.838;2022-08-27T04:34:36;26.40;;;17.10;;
54935;SDS011;40838;50.676;7.838;2022-08-27T04:37:03;23.88;;;15.25;;
54935;SDS011;40838;50.676;7.838;2022-08-27T04:39:29;24.42;;;15.18;;
54935;SDS011;40838;50.676;7.838;2022-08-27T04:41:57;23.60;;;16.17;;
54935;SDS011;40838;50.676;7.838;2022-08-27T04:44:24;21.35;;;14.82;;
54935;SDS011;40838;50.676;7.838;2022-08-27T04:46:53;22.35;;;15.48;;
54935;SDS011;40838;50.676;7.838;2022-08-27T04:49:20;20.73;;;14.63;;
54935;SDS011;40838;50.676;7.838;2022-08-27T04:51:48;23.30;;;16.15;;
54935;SDS011;40838;50.676;7.838;2022-08-27T04:54:16;26.13;;;15.75;;
54935;SDS011;40838;50.676;7.838;2022-08-27T04:56:43;20.52;;;14.70;;
54935;SDS011;40838;50.676;7.838;2022-08-27T04:59:10;24.52;;;15.90;;
54935;SDS011;40838;50.676;7.838;2022-08-27T05:01:37;23.88;;;14.52;;
54935;SDS011;40838;50.676;7.838;2022-08-27T05:04:04;19.65;;;13.70;;
54935;SDS011;40838;50.676;7.838;2022-08-27T05:06:31;20.85;;;13.77;;
54935;SDS011;40838;50.676;7.838;2022-08-27T05:08:59;18.35;;;12.23;;
54935;SDS011;40838;50.676;7.838;2022-08-27T05:11:26;16.60;;;11.38;;
54935;SDS011;40838;50.676;7.838;2022-08-27T05:13:56;18.48;;;11.75;;
54935;SDS011;40838;50.676;7.838;2022-08-27T05:16:23;23.88;;;12.82;;
54935;SDS011;40838;50.676;7.838;2022-08-27T05:18:50;17.00;;;11.13;;
54935;SDS011;40838;50.676;7.838;2022-08-27T05:21:18;16.52;;;11.00;;
54935;SDS011;40838;50.676;7.838;2022-08-27T05:23:45;17.50;;;11.10;;
54935;SDS011;40838;50.676;7.838;2022-08-27T05:26:14;16.40;;;10.10;;
54935;SDS011;40838;50.676;7.838;2022-08-27T05:28:41;16.48;;;10.25;;
54935;SDS011;40838;50.676;7.838;2022-08-27T05:31:09;17.15;;;10.23;;
54935;SDS011;40838;50.676;7.838;2022-08-27T05:33:36;17.15;;;10.85;;
54935;SDS011;40838;50.676;7.838;2022-08-27T05:36:03;18.15;;;10.55;;
54935;SDS011;40838;50.676;7.838;2022-08-27T05:38:32;16.98;;;9.45;;
54935;SDS011;40838;50.676;7.838;2022-08-27T05:41:02;13.27;;;8.45;;
54935;SDS011;40838;50.676;7.838;2022-08-27T05:43:31;14.05;;;9.38;;
54935;SDS011;40838;50.676;7.838;2022-08-27T05:45:58;14.90;;;8.35;;
54935;SDS011;40838;50.676;7.838;2022-08-27T05:48:25;11.48;;;7.43;;
54935;SDS011;40838;50.676;7.838;2022-08-27T05:50:51;10.52;;;7.35;;
54935;SDS011;40838;50.676;7.838;2022-08-27T05:53:26;12.32;;;7.95;;
54935;SDS011;40838;50.676;7.838;2022-08-27T05:55:53;11.55;;;7.47;;
54935;SDS011;40838;50.676;7.838;2022-08-27T05:58:20;11.90;;;7.60;;
54935;SDS011;40838;50.676;7.838;2022-08-27T06:01:01;11.00;;;7.15;;
54935;SDS011;40838;50.676;7.838;2022-08-27T06:03:42;9.77;;;6.57;;
54935;SDS011;40838;50.676;7.838;2022-08-27T06:06:10;9.00;;;5.93;;
54935;SDS011;40838;50.676;7.838;2022-08-27T06:08:37;9.82;;;5.97;;
54935;SDS011;40838;50.676;7.838;2022-08-27T06:11:07;9.65;;;5.97;;
54935;SDS011;40838;50.676;7.838;2022-08-27T06:13:35;9.35;;;5.53;;
54935;SDS011;40838;50.676;7.838;2022-08-27T06:16:03;8.10;;;5.60;;
54935;SDS011;40838;50.676;7.838;2022-08-27T06:18:30;7.00;;;5.22;;
54935;SDS011;40838;50.676;7.838;2022-08-27T06:20:57;10.52;;;5.85;;
54935;SDS011;40838;50.676;7.838;2022-08-27T06:23:25;8.13;;;4.70;;
54935;SDS011;40838;50.676;7.838;2022-08-27T06:25:53;6.20;;;4.22;;
54935;SDS011;40838;50.676;7.838;2022-08-27T06:28:20;8.00;;;5.43;;
54935;SDS011;40838;50.676;7.838;2022-08-27T06:30:47;8.75;;;5.85;;
54935;SDS011;40838;50.676;7.838;2022-08-27T06:33:15;8.80;;;5.38;;
54935;SDS011;40838;50.676;7.838;2022-08-27T06:35:48;6.47;;;4.85;;
54935;SDS011;40838;50.676;7.838;2022-08-27T06:38:15;7.13;;;4.57;;
54935;SDS011;40838;50.676;7.838;2022-08-27T06:40:41;8.60;;;5.13;;
54935;SDS011;40838;50.676;7.838;2022-08-27T06:43:09;8.32;;;4.90;;
54935;SDS011;40838;50.676;7.838;2022-08-27T06:45:36;6.18;;;4.60;;
54935;SDS011;40838;50.676;7.838;2022-08-27T06:48:03;8.02;;;5.07;;
54935;SDS011;40838;50.676;7.838;2022-08-27T06:50:32;7.10;;;4.68;;
54935;SDS011;40838;50.676;7.838;2022-08-27T06:53:01;6.40;;;4.65;;
54935;SDS011;40838;50.676;7.838;2022-08-27T06:55:28;7.22;;;4.25;;
54935;SDS011;40838;50.676;7.838;2022-08-27T06:57:55;7.13;;;4.60;;
54935;SDS011;40838;50.676;7.838;2022-08-27T07:00:21;15.45;;;5.03;;
54935;SDS011;40838;50.676;7.838;2022-08-27T07:02:48;5.53;;;3.63;;
54935;SDS011;40838;50.676;7.838;2022-08-27T07:05:15;8.93;;;4.60;;
54935;SDS011;40838;50.676;7.838;2022-08-27T07:07:44;5.07;;;3.75;;
54935;SDS011;40838;50.676;7.838;2022-08-27T07:10:11;6.35;;;4.03;;
54935;SDS011;40838;50.676;7.838;2022-08-27T07:12:37;6.88;;;4.10;;
54935;SDS011;40838;50.676;7.838;2022-08-27T07:15:04;7.38;;;3.40;;
54935;SDS011;40838;50.676;7.838;2022-08-27T07:17:31;10.30;;;4.32;;
54935;SDS011;40838;50.676;7.838;2022-08-27T07:19:58;6.78;;;4.10;;
54935;SDS011;40838;50.676;7.838;2022-08-27T07:22:24;7.90;;;4.00;;
54935;SDS011;40838;50.676;7.838;2022-08-27T07:24:52;6.28;;;4.05;;
54935;SDS011;40838;50.676;7.838;2022-08-27T07:27:19;9.20;;;4.38;;
54935;SDS011;40838;50.676;7.838;2022-08-27T07:29:50;5.38;;;3.92;;
54935;SDS011;40838;50.676;7.838;2022-08-27T07:32:17;6.30;;;3.75;;
54935;SDS011;40838;50.676;7.838;2022-08-27T07:34:44;5.97;;;4.15;;
54935;SDS011;40838;50.676;7.838;2022-08-27T07:37:10;3.97;;;3.10;;
54935;SDS011;40838;50.676;7.838;2022-08-27T07:39:41;9.23;;;4.28;;
54935;SDS011;40838;50.676;7.838;2022-08-27T07:42:09;5.03;;;3.83;;
54935;SDS011;40838;50.676;7.838;2022-08-27T07:44:49;7.32;;;3.42;;
54935;SDS011;40838;50.676;7.838;2022-08-27T07:47:16;5.18;;;3.90;;
54935;SDS011;40838;50.676;7.838;2022-08-27T07:49:43;3.80;;;3.40;;
54935;SDS011;40838;50.676;7.838;2022-08-27T07:52:10;5.22;;;2.97;;
54935;SDS011;40838;50.676;7.838;2022-08-27T07:54:37;5.13;;;3.60;;
54935;SDS011;40838;50.676;7.838;2022-08-27T07:57:05;5.00;;;3.97;;
54935;SDS011;40838;50.676;7.838;2022-08-27T07:59:33;7.63;;;4.57;;
54935;SDS011;40838;50.676;7.838;2022-08-27T08:02:01;6.47;;;4.30;;
54935;SDS011;40838;50.676;7.838;2022-08-27T08:04:28;5.18;;;3.92;;
54935;SDS011;40838;50.676;7.838;2022-08-27T08:06:54;5.03;;;3.80;;
54935;SDS011;40838;50.676;7.838;2022-08-27T08:09:21;4.70;;;3.70;;
54935;SDS011;40838;50.676;7.838;2022-08-27T08:11:52;5.70;;;3.80;;
54935;SDS011;40838;50.676;7.838;2022-08-27T08:14:19;5.53;;;3.90;;
54935;SDS011;40838;50.676;7.838;2022-08-27T08:16:47;4.28;;;3.58;;
54935;SDS011;40838;50.676;7.838;2022-08-27T08:19:14;3.83;;;3.20;;
54935;SDS011;40838;50.676;7.838;2022-08-27T08:21:40;4.15;;;3.47;;
54935;SDS011;40838;50.676;7.838;2022-08-27T08:24:20;4.00;;;3.45;;
54935;SDS011;40838;50.676;7.838;2022-08-27T08:26:46;7.05;;;4.13;;
54935;SDS011;40838;50.676;7.838;2022-08-27T08:29:14;3.05;;;2.72;;
54935;SDS011;40838;50.676;7.838;2022-08-27T08:31:43;4.65;;;3.40;;
54935;SDS011;40838;50.676;7.838;2022-08-27T08:34:12;4.13;;;3.20;;
54935;SDS011;40838;50.676;7.838;2022-08-27T08:36:39;3.13;;;2.83;;
54935;SDS011;40838;50.676;7.838;2022-08-27T08:39:06;3.38;;;2.42;;
54935;SDS011;40838;50.676;7.838;2022-08-27T08:41:36;4.00;;;2.85;;
54935;SDS011;40838;50.676;7.838;2022-08-27T08:44:06;4.15;;;3.63;;
54935;SDS011;40838;50.676;7.838;2022-08-27T08:46:36;3.72;;;3.00;;
54935;SDS011;40838;50.676;7.838;2022-08-27T08:49:06;5.35;;;2.90;;
54935;SDS011;40838;50.676;7.838;2022-08-27T08:51:37;8.80;;;2.78;;
54935;SDS011;40838;50.676;7.838;2022-08-27T08:54:12;3.90;;;3.00;;
54935;SDS011;40838;50.676;7.838;2022-08-27T08:56:42;3.03;;;2.53;;
54935;SDS011;40838;50.676;7.838;2022-08-27T08:59:14;3.55;;;3.15;;
54935;SDS011;40838;50.676;7.838;2022-08-27T09:01:43;3.28;;;2.80;;
54935;SDS011;40838;50.676;7.838;2022-08-27T09:04:10;3.55;;;2.50;;
54935;SDS011;40838;50.676;7.838;2022-08-27T09:10:09;2.88;;;2.65;;
54935;SDS011;40838;50.676;7.838;2022-08-27T09:12:38;2.45;;;2.25;;
54935;SDS011;40838;50.676;7.838;2022-08-27T09:15:08;3.22;;;2.42;;
54935;SDS011;40838;50.676;7.838;2022-08-27T09:17:37;3.30;;;2.50;;
54935;SDS011;40838;50.676;7.838;2022-08-27T09:20:04;2.60;;;2.40;;
54935;SDS011;40838;50.676;7.838;2022-08-27T09:22:38;3.13;;;2.00;;
54935;SDS011;40838;50.676;7.838;2022-08-27T09:25:10;4.38;;;2.47;;
54935;SDS011;40838;50.676;7.838;2022-08-27T09:27:46;2.22;;;1.90;;
54935;SDS011;40838;50.676;7.838;2022-08-27T09:30:18;2.10;;;1.90;;
54935;SDS011;40838;50.676;7.838;2022-08-27T09:32:50;2.70;;;1.90;;
54935;SDS011;40838;50.676;7.838;2022-08-27T09:35:19;2.50;;;2.30;;
54935;SDS011;40838;50.676;7.838;2022-08-27T09:37:46;3.50;;;2.30;;
54935;SDS011;40838;50.676;7.838;2022-08-27T09:40:18;2.20;;;2.00;;
54935;SDS011;40838;50.676;7.838;2022-08-27T09:42:48;3.17;;;2.03;;
54935;SDS011;40838;50.676;7.838;2022-08-27T09:45:18;2.38;;;2.10;;
54935;SDS011;40838;50.676;7.838;2022-08-27T09:47:46;3.40;;;2.50;;
54935;SDS011;40838;50.676;7.838;2022-08-27T09:50:14;2.47;;;2.28;;
54935;SDS011;40838;50.676;7.838;2022-08-27T09:52:46;3.50;;;1.77;;
54935;SDS011;40838;50.676;7.838;2022-08-27T09:55:14;2.35;;;2.15;;
54935;SDS011;40838;50.676;7.838;2022-08-27T09:57:50;2.95;;;2.40;;
54935;SDS011;40838;50.676;7.838;2022-08-27T10:00:17;2.45;;;2.25;;
54935;SDS011;40838;50.676;7.838;2022-08-27T10:02:48;2.72;;;2.22;;
54935;SDS011;40838;50.676;7.838;2022-08-27T10:05:21;3.38;;;1.50;;
54935;SDS011;40838;50.676;7.838;2022-08-27T10:07:50;2.45;;;1.40;;
54935;SDS011;40838;50.676;7.838;2022-08-27T10:10:20;1.98;;;1.60;;
54935;SDS011;40838;50.676;7.838;2022-08-27T10:12:50;2.22;;;2.03;;
54935;SDS011;40838;50.676;7.838;2022-08-27T10:15:18;3.22;;;1.98;;
54935;SDS011;40838;50.676;7.838;2022-08-27T10:17:47;2.65;;;1.90;;
54935;SDS011;40838;50.676;7.838;2022-08-27T10:20:24;1.70;;;1.60;;
54935;SDS011;40838;50.676;7.838;2022-08-27T10:22:56;1.88;;;1.50;;
54935;SDS011;40838;50.676;7.838;2022-08-27T10:25:31;2.75;;;1.63;;
54935;SDS011;40838;50.676;7.838;2022-08-27T10:28:04;1.83;;;1.73;;
54935;SDS011;40838;50.676;7.838;2022-08-27T10:30:40;2.03;;;1.35;;
54935;SDS011;40838;50.676;7.838;2022-08-27T10:33:12;2.08;;;1.88;;
54935;SDS011;40838;50.676;7.838;2022-08-27T10:35:44;1.67;;;1.58;;
54935;SDS011;40838;50.676;7.838;2022-08-27T10:38:14;1.85;;;1.48;;
54935;SDS011;40838;50.676;7.838;2022-08-27T10:40:46;2.05;;;1.48;;
54935;SDS011;40838;50.676;7.838;2022-08-27T10:43:23;1.85;;;1.55;;
54935;SDS011;40838;50.676;7.838;2022-08-27T10:48:24;2.05;;;1.25;;
54935;SDS011;40838;50.676;7.838;2022-08-27T10:50:56;1.50;;;1.40;;
54935;SDS011;40838;50.676;7.838;2022-08-27T10:53:29;1.20;;;1.10;;
54935;SDS011;40838;50.676;7.838;2022-08-27T10:56:02;1.67;;;1.30;;
54935;SDS011;40838;50.676;7.838;2022-08-27T10:58:38;1.30;;;1.20;;
54935;SDS011;40838;50.676;7.838;2022-08-27T11:01:10;3.60;;;1.35;;
54935;SDS011;40838;50.676;7.838;2022-08-27T11:03:39;1.20;;;1.10;;
54935;SDS011;40838;50.676;7.838;2022-08-27T11:06:09;1.40;;;1.30;;
54935;SDS011;40838;50.676;7.838;2022-08-27T11:08:46;1.40;;;1.13;;
54935;SDS011;40838;50.676;7.838;2022-08-27T11:11:18;1.33;;;1.23;;
54935;SDS011;40838;50.676;7.838;2022-08-27T11:13:48;1.10;;;1.00;;
54935;SDS011;40838;50.676;7.838;2022-08-27T11:16:19;1.67;;;1.40;;
54935;SDS011;40838;50.676;7.838;2022-08-27T11:18:50;3.08;;;1.00;;
54935;SDS011;40838;50.676;7.838;2022-08-27T11:21:21;1.20;;;1.10;;
54935;SDS011;40838;50.676;7.838;2022-08-27T11:23:51;1.48;;;0.93;;
54935;SDS011;40838;50.676;7.838;2022-08-27T11:26:21;4.70;;;1.08;;
54935;SDS011;40838;50.676;7.838;2022-08-27T11:28:48;1.10;;;1.10;;
54935;SDS011;40838;50.676;7.838;2022-08-27T11:31:17;1.58;;;0.90;;
54935;SDS011;40838;50.676;7.838;2022-08-27T11:33:46;1.75;;;1.13;;
54935;SDS011;40838;50.676;7.838;2022-08-27T11:38:57;1.58;;;1.17;;
54935;SDS011;40838;50.676;7.838;2022-08-27T11:41:33;1.17;;;1.02;;
54935;SDS011;40838;50.676;7.838;2022-08-27T11:44:03;1.15;;;1.05;;
54935;SDS011;40838;50.676;7.838;2022-08-27T11:46:37;0.82;;;0.82;;
54935;SDS011;40838;50.676;7.838;2022-08-27T11:49:09;0.95;;;0.80;;
54935;SDS011;40838;50.676;7.838;2022-08-27T11:51:38;0.95;;;0.70;;
54935;SDS011;40838;50.676;7.838;2022-08-27T11:54:09;0.85;;;0.85;;
54935;SDS011;40838;50.676;7.838;2022-08-27T11:56:48;1.98;;;1.05;;
54935;SDS011;40838;50.676;7.838;2022-08-27T11:59:19;1.15;;;0.80;;
54935;SDS011;40838;50.676;7.838;2022-08-27T12:01:46;1.23;;;0.98;;
54935;SDS011;40838;50.676;7.838;2022-08-27T12:04:19;0.90;;;0.85;;
54935;SDS011;40838;50.676;7.838;2022-08-27T12:06:49;1.10;;;1.00;;
54935;SDS011;40838;50.676;7.838;2022-08-27T12:09:17;0.95;;;0.85;;
54935;SDS011;40838;50.676;7.838;2022-08-27T12:11:46;0.80;;;0.80;;
54935;SDS011;40838;50.676;7.838;2022-08-27T12:14:23;2.60;;;0.75;;
54935;SDS011;40838;50.676;7.838;2022-08-27T12:16:57;1.85;;;1.30;;
54935;SDS011;40838;50.676;7.838;2022-08-27T12:19:40;0.73;;;0.65;;
54935;SDS011;40838;50.676;7.838;2022-08-27T12:22:16;0.95;;;0.95;;
54935;SDS011;40838;50.676;7.838;2022-08-27T12:24:49;0.80;;;0.80;;
54935;SDS011;40838;50.676;7.838;2022-08-27T12:27:27;0.82;;;0.82;;
54935;SDS011;40838;50.676;7.838;2022-08-27T12:30:02;0.70;;;0.70;;
54935;SDS011;40838;50.676;7.838;2022-08-27T12:32:30;0.68;;;0.68;;
54935;SDS011;40838;50.676;7.838;2022-08-27T12:35:07;2.15;;;0.82;;
54935;SDS011;40838;50.676;7.838;2022-08-27T12:37:36;0.65;;;0.60;;
54935;SDS011;40838;50.676;7.838;2022-08-27T12:40:05;1.73;;;1.00;;
54935;SDS011;40838;50.676;7.838;2022-08-27T12:42:34;0.95;;;0.70;;
54935;SDS011;40838;50.676;7.838;2022-08-27T12:45:09;0.73;;;0.73;;
54935;SDS011;40838;50.676;7.838;2022-08-27T12:47:43;0.93;;;0.77;;
54935;SDS011;40838;50.676;7.838;2022-08-27T12:50:17;0.98;;;0.60;;
54935;SDS011;40838;50.676;7.838;2022-08-27T12:52:50;0.50;;;0.50;;
54935;SDS011;40838;50.676;7.838;2022-08-27T12:55:21;1.52;;;0.80;;
54935;SDS011;40838;50.676;7.838;2022-08-27T12:57:56;0.60;;;0.60;;
54935;SDS011;40838;50.676;7.838;2022-08-27T13:00:29;0.77;;;0.77;;
54935;SDS011;40838;50.676;7.838;2022-08-27T13:03:15;0.90;;;0.90;;
54935;SDS011;40838;50.676;7.838;2022-08-27T13:05:46;0.82;;;0.75;;
54935;SDS011;40838;50.676;7.838;2022-08-27T13:08:18;0.70;;;0.70;;
54935;SDS011;40838;50.676;7.838;2022-08-27T13:10:46;3.43;;;0.90;;
54935;SDS011;40838;50.676;7.838;2022-08-27T13:13:16;1.30;;;1.00;;
54935;SDS011;40838;50.676;7.838;2022-08-27T13:15:45;1.65;;;1.23;;
54935;SDS011;40838;50.676;7.838;2022-08-27T13:18:15;0.77;;;0.77;;
54935;SDS011;40838;50.676;7.838;2022-08-27T13:20:42;0.95;;;0.95;;
54935;SDS011;40838;50.676;7.838;2022-08-27T13:23:12;0.80;;;0.80;;
54935;SDS011;40838;50.676;7.838;2022-08-27T13:25:40;1.60;;;0.80;;
54935;SDS011;40838;50.676;7.838;2022-08-27T13:28:08;0.70;;;0.70;;
54935;SDS011;40838;50.676;7.838;2022-08-27T13:30:38;1.10;;;1.02;;
54935;SDS011;40838;50.676;7.838;2022-08-27T13:33:08;0.88;;;0.88;;
54935;SDS011;40838;50.676;7.838;2022-08-27T13:35:36;0.95;;;0.95;;
54935;SDS011;40838;50.676;7.838;2022-08-27T13:38:05;1.45;;;1.00;;
54935;SDS011;40838;50.676;7.838;2022-08-27T13:40:32;1.13;;;1.02;;
54935;SDS011;40838;50.676;7.838;2022-08-27T13:43:01;3.33;;;1.40;;
54935;SDS011;40838;50.676;7.838;2022-08-27T13:45:28;1.80;;;1.45;;
54935;SDS011;40838;50.676;7.838;2022-08-27T13:47:56;1.40;;;1.30;;
54935;SDS011;40838;50.676;7.838;2022-08-27T13:50:38;1.88;;;1.30;;
54935;SDS011;40838;50.676;7.838;2022-08-27T13:53:12;1.98;;;1.25;;
54935;SDS011;40838;50.676;7.838;2022-08-27T13:56:02;1.67;;;1.58;;
54935;SDS011;40838;50.676;7.838;2022-08-27T13:58:29;2.58;;;2.22;;
54935;SDS011;40838;50.676;7.838;2022-08-27T14:01:07;1.83;;;1.73;;
54935;SDS011;40838;50.676;7.838;2022-08-27T14:03:35;3.13;;;2.20;;
54935;SDS011;40838;50.676;7.838;2022-08-27T14:06:04;4.55;;;2.50;;
54935;SDS011;40838;50.676;7.838;2022-08-27T14:08:32;5.65;;;2.00;;
54935;SDS011;40838;50.676;7.838;2022-08-27T14:11:01;3.53;;;2.40;;
54935;SDS011;40838;50.676;7.838;2022-08-27T14:13:36;7.22;;;1.98;;
54935;SDS011;40838;50.676;7.838;2022-08-27T14:16:11;2.65;;;2.13;;
54935;SDS011;40838;50.676;7.838;2022-08-27T14:21:12;2.65;;;2.30;;
54935;SDS011;40838;50.676;7.838;2022-08-27T14:23:38;2.72;;;1.77;;
54935;SDS011;40838;50.676;7.838;2022-08-27T14:26:05;3.00;;;2.05;;
54935;SDS011;40838;50.676;7.838;2022-08-27T14:28:31;2.95;;;1.90;;
54935;SDS011;40838;50.676;7.838;2022-08-27T14:31:03;5.15;;;2.13;;
54935;SDS011;40838;50.676;7.838;2022-08-27T14:33:29;4.40;;;1.90;;
54935;SDS011;40838;50.676;7.838;2022-08-27T14:35:56;3.17;;;2.00;;
54935;SDS011;40838;50.676;7.838;2022-08-27T14:38:26;8.00;;;2.75;;
54935;SDS011;40838;50.676;7.838;2022-08-27T14:40:55;3.15;;;2.03;;
54935;SDS011;40838;50.676;7.838;2022-08-27T14:43:26;2.78;;;2.03;;
54935;SDS011;40838;50.676;7.838;2022-08-27T14:45:53;3.45;;;2.10;;
54935;SDS011;40838;50.676;7.838;2022-08-27T14:48:24;3.97;;;2.05;;
54935;SDS011;40838;50.676;7.838;2022-08-27T14:50:57;4.78;;;2.17;;
54935;SDS011;40838;50.676;7.838;2022-08-27T14:53:39;4.20;;;2.05;;
54935;SDS011;40838;50.676;7.838;2022-08-27T14:56:26;3.88;;;1.90;;
54935;SDS011;40838;50.676;7.838;2022-08-27T14:58:52;6.28;;;1.80;;
54935;SDS011;40838;50.676;7.838;2022-08-27T15:01:20;7.53;;;2.13;;